sensor_id;sensor_type;location;lat;lon;timestamp;P1;durP1;ratioP1;P2;durP2;ratioP2
55364;SDS011;41245;45.384;20.390;2024-02-04T00:00:44;21.95;;;11.45;;
55364;SDS011;41245;45.384;20.390;2024-02-04T00:03:10;22.05;;;11.38;;
55364;SDS011;41245;45.384;20.390;2024-02-04T00:05:36;19.42;;;10.98;;
55364;SDS011;41245;45.384;20.390;2024-02-04T00:08:03;21.35;;;10.98;;
55364;SDS011;41245;45.384;20.390;2024-02-04T00:10:29;18.30;;;10.20;;
55364;SDS011;41245;45.384;20.390;2024-02-04T00:12:55;20.88;;;10.88;;
55364;SDS011;41245;45.384;20.390;2024-02-04T00:15:22;19.65;;;10.65;;
55364;SDS011;41245;45.384;20.390;2024-02-04T00:17:48;17.10;;;10.27;;
55364;SDS011;41245;45.384;20.390;2024-02-04T00:20:14;20.80;;;11.68;;
55364;SDS011;41245;45.384;20.390;2024-02-04T00:22:40;19.70;;;10.80;;
55364;SDS011;41245;45.384;20.390;2024-02-04T00:25:06;19.33;;;10.60;;
55364;SDS011;41245;45.384;20.390;2024-02-04T00:27:36;20.45;;;10.98;;
55364;SDS011;41245;45.384;20.390;2024-02-04T00:30:02;21.55;;;11.20;;
55364;SDS011;41245;45.384;20.390;2024-02-04T00:32:29;22.55;;;11.70;;
55364;SDS011;41245;45.384;20.390;2024-02-04T00:34:55;21.90;;;11.25;;
55364;SDS011;41245;45.384;20.390;2024-02-04T00:37:21;23.17;;;10.65;;
55364;SDS011;41245;45.384;20.390;2024-02-04T00:39:47;21.95;;;12.15;;
55364;SDS011;41245;45.384;20.390;2024-02-04T00:42:13;25.60;;;12.35;;
55364;SDS011;41245;45.384;20.390;2024-02-04T00:44:39;26.00;;;11.90;;
55364;SDS011;41245;45.384;20.390;2024-02-04T00:47:05;22.70;;;11.00;;
55364;SDS011;41245;45.384;20.390;2024-02-04T00:49:31;23.42;;;11.55;;
55364;SDS011;41245;45.384;20.390;2024-02-04T00:51:57;20.23;;;10.85;;
55364;SDS011;41245;45.384;20.390;2024-02-04T00:54:23;17.50;;;9.65;;
55364;SDS011;41245;45.384;20.390;2024-02-04T00:56:50;18.95;;;10.93;;
55364;SDS011;41245;45.384;20.390;2024-02-04T00:59:16;20.42;;;9.73;;
55364;SDS011;41245;45.384;20.390;2024-02-04T01:01:42;19.80;;;11.18;;
55364;SDS011;41245;45.384;20.390;2024-02-04T01:04:08;18.10;;;10.07;;
55364;SDS011;41245;45.384;20.390;2024-02-04T01:06:34;21.50;;;10.40;;
55364;SDS011;41245;45.384;20.390;2024-02-04T01:09:00;19.25;;;9.43;;
55364;SDS011;41245;45.384;20.390;2024-02-04T01:11:26;16.00;;;9.30;;
55364;SDS011;41245;45.384;20.390;2024-02-04T01:13:54;18.92;;;10.13;;
55364;SDS011;41245;45.384;20.390;2024-02-04T01:16:20;18.10;;;8.77;;
55364;SDS011;41245;45.384;20.390;2024-02-04T01:18:46;17.23;;;9.32;;
55364;SDS011;41245;45.384;20.390;2024-02-04T01:21:12;17.10;;;8.82;;
55364;SDS011;41245;45.384;20.390;2024-02-04T01:23:38;17.33;;;9.35;;
55364;SDS011;41245;45.384;20.390;2024-02-04T01:26:04;18.08;;;9.55;;
55364;SDS011;41245;45.384;20.390;2024-02-04T01:28:30;17.63;;;9.90;;
55364;SDS011;41245;45.384;20.390;2024-02-04T01:30:56;19.65;;;9.45;;
55364;SDS011;41245;45.384;20.390;2024-02-04T01:33:22;17.88;;;9.73;;
55364;SDS011;41245;45.384;20.390;2024-02-04T01:35:48;20.55;;;9.45;;
55364;SDS011;41245;45.384;20.390;2024-02-04T01:38:15;19.42;;;10.20;;
55364;SDS011;41245;45.384;20.390;2024-02-04T01:40:41;20.90;;;10.27;;
55364;SDS011;41245;45.384;20.390;2024-02-04T01:43:07;20.70;;;9.75;;
55364;SDS011;41245;45.384;20.390;2024-02-04T01:45:33;20.80;;;9.93;;
55364;SDS011;41245;45.384;20.390;2024-02-04T01:47:59;22.88;;;10.20;;
55364;SDS011;41245;45.384;20.390;2024-02-04T01:50:25;24.95;;;10.30;;
55364;SDS011;41245;45.384;20.390;2024-02-04T01:52:51;19.38;;;9.93;;
55364;SDS011;41245;45.384;20.390;2024-02-04T01:55:18;19.63;;;10.00;;
55364;SDS011;41245;45.384;20.390;2024-02-04T01:57:44;15.60;;;9.18;;
55364;SDS011;41245;45.384;20.390;2024-02-04T02:00:10;18.63;;;10.05;;
55364;SDS011;41245;45.384;20.390;2024-02-04T02:02:40;17.38;;;9.60;;
55364;SDS011;41245;45.384;20.390;2024-02-04T02:05:07;16.90;;;9.77;;
55364;SDS011;41245;45.384;20.390;2024-02-04T02:07:34;17.33;;;9.98;;
55364;SDS011;41245;45.384;20.390;2024-02-04T02:10:00;22.90;;;10.85;;
55364;SDS011;41245;45.384;20.390;2024-02-04T02:12:30;16.05;;;9.82;;
55364;SDS011;41245;45.384;20.390;2024-02-04T02:15:01;17.15;;;9.88;;
55364;SDS011;41245;45.384;20.390;2024-02-04T02:17:33;13.95;;;8.52;;
55364;SDS011;41245;45.384;20.390;2024-02-04T02:20:05;17.48;;;8.63;;
55364;SDS011;41245;45.384;20.390;2024-02-04T02:25:03;14.67;;;8.77;;
55364;SDS011;41245;45.384;20.390;2024-02-04T02:27:30;15.63;;;8.27;;
55364;SDS011;41245;45.384;20.390;2024-02-04T02:29:56;18.38;;;10.20;;
55364;SDS011;41245;45.384;20.390;2024-02-04T02:32:22;18.55;;;9.57;;
55364;SDS011;41245;45.384;20.390;2024-02-04T02:34:48;19.08;;;8.32;;
55364;SDS011;41245;45.384;20.390;2024-02-04T02:37:29;20.20;;;9.60;;
55364;SDS011;41245;45.384;20.390;2024-02-04T02:40:03;18.52;;;9.65;;
55364;SDS011;41245;45.384;20.390;2024-02-04T02:42:31;19.45;;;9.50;;
55364;SDS011;41245;45.384;20.390;2024-02-04T02:44:58;22.77;;;10.15;;
55364;SDS011;41245;45.384;20.390;2024-02-04T02:47:25;18.60;;;9.13;;
55364;SDS011;41245;45.384;20.390;2024-02-04T02:49:53;18.73;;;8.68;;
55364;SDS011;41245;45.384;20.390;2024-02-04T02:52:20;20.15;;;10.15;;
55364;SDS011;41245;45.384;20.390;2024-02-04T02:54:46;24.25;;;10.05;;
55364;SDS011;41245;45.384;20.390;2024-02-04T02:57:12;16.75;;;9.85;;
55364;SDS011;41245;45.384;20.390;2024-02-04T02:59:38;18.70;;;10.13;;
55364;SDS011;41245;45.384;20.390;2024-02-04T03:02:04;22.35;;;10.60;;
55364;SDS011;41245;45.384;20.390;2024-02-04T03:04:30;19.38;;;10.20;;
55364;SDS011;41245;45.384;20.390;2024-02-04T03:06:56;17.45;;;9.98;;
55364;SDS011;41245;45.384;20.390;2024-02-04T03:09:22;20.45;;;9.48;;
55364;SDS011;41245;45.384;20.390;2024-02-04T03:11:48;16.98;;;9.63;;
55364;SDS011;41245;45.384;20.390;2024-02-04T03:14:15;20.52;;;10.45;;
55364;SDS011;41245;45.384;20.390;2024-02-04T03:16:45;19.45;;;9.73;;
55364;SDS011;41245;45.384;20.390;2024-02-04T03:19:11;20.63;;;9.73;;
55364;SDS011;41245;45.384;20.390;2024-02-04T03:21:37;17.77;;;9.27;;
55364;SDS011;41245;45.384;20.390;2024-02-04T03:24:03;18.55;;;10.82;;
55364;SDS011;41245;45.384;20.390;2024-02-04T03:26:29;21.75;;;9.52;;
55364;SDS011;41245;45.384;20.390;2024-02-04T03:28:55;18.25;;;10.18;;
55364;SDS011;41245;45.384;20.390;2024-02-04T03:31:22;21.15;;;9.68;;
55364;SDS011;41245;45.384;20.390;2024-02-04T03:33:48;19.08;;;9.75;;
55364;SDS011;41245;45.384;20.390;2024-02-04T03:36:23;15.95;;;9.73;;
55364;SDS011;41245;45.384;20.390;2024-02-04T03:38:50;15.25;;;8.95;;
55364;SDS011;41245;45.384;20.390;2024-02-04T03:41:16;16.77;;;9.52;;
55364;SDS011;41245;45.384;20.390;2024-02-04T03:43:42;21.50;;;8.98;;
55364;SDS011;41245;45.384;20.390;2024-02-04T03:46:12;17.52;;;8.65;;
55364;SDS011;41245;45.384;20.390;2024-02-04T03:51:04;14.25;;;8.65;;
55364;SDS011;41245;45.384;20.390;2024-02-04T03:53:30;20.15;;;9.30;;
55364;SDS011;41245;45.384;20.390;2024-02-04T03:55:57;20.35;;;10.05;;
55364;SDS011;41245;45.384;20.390;2024-02-04T03:58:23;17.25;;;8.93;;
55364;SDS011;41245;45.384;20.390;2024-02-04T04:00:57;16.15;;;8.70;;
55364;SDS011;41245;45.384;20.390;2024-02-04T04:03:24;14.52;;;8.85;;
55364;SDS011;41245;45.384;20.390;2024-02-04T04:05:50;17.02;;;9.55;;
55364;SDS011;41245;45.384;20.390;2024-02-04T04:08:16;17.13;;;9.40;;
55364;SDS011;41245;45.384;20.390;2024-02-04T04:10:43;15.75;;;8.82;;
55364;SDS011;41245;45.384;20.390;2024-02-04T04:13:10;15.45;;;9.18;;
55364;SDS011;41245;45.384;20.390;2024-02-04T04:15:36;16.63;;;8.95;;
55364;SDS011;41245;45.384;20.390;2024-02-04T04:18:02;15.05;;;9.10;;
55364;SDS011;41245;45.384;20.390;2024-02-04T04:20:28;16.30;;;8.82;;
55364;SDS011;41245;45.384;20.390;2024-02-04T04:22:55;20.58;;;9.02;;
55364;SDS011;41245;45.384;20.390;2024-02-04T04:25:21;22.55;;;8.77;;
55364;SDS011;41245;45.384;20.390;2024-02-04T04:27:47;23.83;;;9.10;;
55364;SDS011;41245;45.384;20.390;2024-02-04T04:30:13;15.68;;;9.13;;
55364;SDS011;41245;45.384;20.390;2024-02-04T04:32:39;20.73;;;9.18;;
55364;SDS011;41245;45.384;20.390;2024-02-04T04:35:05;16.95;;;8.88;;
55364;SDS011;41245;45.384;20.390;2024-02-04T04:37:31;19.00;;;9.70;;
55364;SDS011;41245;45.384;20.390;2024-02-04T04:39:57;21.45;;;11.38;;
55364;SDS011;41245;45.384;20.390;2024-02-04T04:42:24;16.60;;;9.50;;
55364;SDS011;41245;45.384;20.390;2024-02-04T04:44:50;16.67;;;9.70;;
55364;SDS011;41245;45.384;20.390;2024-02-04T04:47:16;17.52;;;9.85;;
55364;SDS011;41245;45.384;20.390;2024-02-04T04:49:42;19.83;;;10.20;;
55364;SDS011;41245;45.384;20.390;2024-02-04T04:52:08;18.77;;;10.35;;
55364;SDS011;41245;45.384;20.390;2024-02-04T04:54:34;20.23;;;10.98;;
55364;SDS011;41245;45.384;20.390;2024-02-04T04:57:00;20.95;;;11.48;;
55364;SDS011;41245;45.384;20.390;2024-02-04T04:59:26;26.05;;;11.95;;
55364;SDS011;41245;45.384;20.390;2024-02-04T05:01:52;22.42;;;12.80;;
55364;SDS011;41245;45.384;20.390;2024-02-04T05:04:18;22.75;;;12.25;;
55364;SDS011;41245;45.384;20.390;2024-02-04T05:06:44;23.95;;;12.63;;
55364;SDS011;41245;45.384;20.390;2024-02-04T05:09:10;23.77;;;13.18;;
55364;SDS011;41245;45.384;20.390;2024-02-04T05:11:36;22.95;;;12.98;;
55364;SDS011;41245;45.384;20.390;2024-02-04T05:14:02;23.98;;;13.10;;
55364;SDS011;41245;45.384;20.390;2024-02-04T05:16:29;29.27;;;14.40;;
55364;SDS011;41245;45.384;20.390;2024-02-04T05:18:55;28.38;;;14.70;;
55364;SDS011;41245;45.384;20.390;2024-02-04T05:21:21;26.63;;;13.27;;
55364;SDS011;41245;45.384;20.390;2024-02-04T05:23:47;28.45;;;13.35;;
55364;SDS011;41245;45.384;20.390;2024-02-04T05:26:14;23.92;;;12.63;;
55364;SDS011;41245;45.384;20.390;2024-02-04T05:28:40;25.90;;;14.48;;
55364;SDS011;41245;45.384;20.390;2024-02-04T05:31:06;26.15;;;14.52;;
55364;SDS011;41245;45.384;20.390;2024-02-04T05:33:32;33.47;;;15.48;;
55364;SDS011;41245;45.384;20.390;2024-02-04T05:35:59;30.60;;;16.02;;
55364;SDS011;41245;45.384;20.390;2024-02-04T05:38:25;30.35;;;14.32;;
55364;SDS011;41245;45.384;20.390;2024-02-04T05:40:51;27.85;;;15.13;;
55364;SDS011;41245;45.384;20.390;2024-02-04T05:43:17;43.17;;;21.98;;
55364;SDS011;41245;45.384;20.390;2024-02-04T05:45:43;45.17;;;22.83;;
55364;SDS011;41245;45.384;20.390;2024-02-04T05:48:09;89.65;;;34.17;;
55364;SDS011;41245;45.384;20.390;2024-02-04T05:50:35;49.50;;;23.85;;
55364;SDS011;41245;45.384;20.390;2024-02-04T05:53:02;33.85;;;17.77;;
55364;SDS011;41245;45.384;20.390;2024-02-04T05:55:28;28.63;;;14.88;;
55364;SDS011;41245;45.384;20.390;2024-02-04T05:57:54;25.75;;;14.02;;
55364;SDS011;41245;45.384;20.390;2024-02-04T06:00:20;24.38;;;13.18;;
55364;SDS011;41245;45.384;20.390;2024-02-04T06:02:46;26.33;;;14.73;;
55364;SDS011;41245;45.384;20.390;2024-02-04T06:05:13;25.27;;;13.75;;
55364;SDS011;41245;45.384;20.390;2024-02-04T06:07:39;24.88;;;12.57;;
55364;SDS011;41245;45.384;20.390;2024-02-04T06:10:08;25.85;;;13.68;;
55364;SDS011;41245;45.384;20.390;2024-02-04T06:12:34;22.75;;;11.88;;
55364;SDS011;41245;45.384;20.390;2024-02-04T06:15:00;21.50;;;12.93;;
55364;SDS011;41245;45.384;20.390;2024-02-04T06:17:26;19.27;;;11.10;;
55364;SDS011;41245;45.384;20.390;2024-02-04T06:19:52;20.80;;;12.23;;
55364;SDS011;41245;45.384;20.390;2024-02-04T06:22:18;20.98;;;12.20;;
55364;SDS011;41245;45.384;20.390;2024-02-04T06:24:45;27.20;;;12.40;;
55364;SDS011;41245;45.384;20.390;2024-02-04T06:27:11;29.80;;;15.35;;
55364;SDS011;41245;45.384;20.390;2024-02-04T06:29:37;26.25;;;13.23;;
55364;SDS011;41245;45.384;20.390;2024-02-04T06:32:04;19.15;;;11.10;;
55364;SDS011;41245;45.384;20.390;2024-02-04T06:34:31;18.33;;;11.57;;
55364;SDS011;41245;45.384;20.390;2024-02-04T06:36:57;25.20;;;12.13;;
55364;SDS011;41245;45.384;20.390;2024-02-04T06:39:23;24.95;;;13.15;;
55364;SDS011;41245;45.384;20.390;2024-02-04T06:41:49;29.27;;;15.60;;
55364;SDS011;41245;45.384;20.390;2024-02-04T06:44:15;35.75;;;17.45;;
55364;SDS011;41245;45.384;20.390;2024-02-04T06:46:41;26.35;;;13.90;;
55364;SDS011;41245;45.384;20.390;2024-02-04T06:49:07;24.35;;;13.70;;
55364;SDS011;41245;45.384;20.390;2024-02-04T06:51:33;30.45;;;13.63;;
55364;SDS011;41245;45.384;20.390;2024-02-04T06:53:59;31.38;;;13.93;;
55364;SDS011;41245;45.384;20.390;2024-02-04T06:56:26;30.95;;;14.27;;
55364;SDS011;41245;45.384;20.390;2024-02-04T06:58:52;30.13;;;13.23;;
55364;SDS011;41245;45.384;20.390;2024-02-04T07:01:18;34.47;;;15.13;;
55364;SDS011;41245;45.384;20.390;2024-02-04T07:03:44;21.67;;;12.23;;
55364;SDS011;41245;45.384;20.390;2024-02-04T07:06:10;23.27;;;12.63;;
55364;SDS011;41245;45.384;20.390;2024-02-04T07:08:36;24.55;;;14.45;;
55364;SDS011;41245;45.384;20.390;2024-02-04T07:11:02;20.38;;;12.55;;
55364;SDS011;41245;45.384;20.390;2024-02-04T07:13:28;30.08;;;12.68;;
55364;SDS011;41245;45.384;20.390;2024-02-04T07:15:54;27.75;;;14.43;;
55364;SDS011;41245;45.384;20.390;2024-02-04T07:18:21;27.30;;;13.95;;
55364;SDS011;41245;45.384;20.390;2024-02-04T07:20:47;24.40;;;14.18;;
55364;SDS011;41245;45.384;20.390;2024-02-04T07:23:14;27.77;;;15.43;;
55364;SDS011;41245;45.384;20.390;2024-02-04T07:25:40;23.75;;;12.60;;
55364;SDS011;41245;45.384;20.390;2024-02-04T07:28:06;27.73;;;13.38;;
55364;SDS011;41245;45.384;20.390;2024-02-04T07:30:32;23.63;;;13.45;;
55364;SDS011;41245;45.384;20.390;2024-02-04T07:32:58;27.33;;;13.65;;
55364;SDS011;41245;45.384;20.390;2024-02-04T07:35:24;27.90;;;14.27;;
55364;SDS011;41245;45.384;20.390;2024-02-04T07:37:50;27.15;;;14.07;;
55364;SDS011;41245;45.384;20.390;2024-02-04T07:40:15;27.20;;;14.98;;
55364;SDS011;41245;45.384;20.390;2024-02-04T07:42:41;26.15;;;14.35;;
55364;SDS011;41245;45.384;20.390;2024-02-04T07:45:07;22.23;;;13.15;;
55364;SDS011;41245;45.384;20.390;2024-02-04T07:47:35;27.00;;;14.82;;
55364;SDS011;41245;45.384;20.390;2024-02-04T07:50:01;24.08;;;13.25;;
55364;SDS011;41245;45.384;20.390;2024-02-04T07:52:27;27.50;;;14.43;;
55364;SDS011;41245;45.384;20.390;2024-02-04T07:54:53;31.48;;;14.60;;
55364;SDS011;41245;45.384;20.390;2024-02-04T07:57:19;29.73;;;14.70;;
55364;SDS011;41245;45.384;20.390;2024-02-04T07:59:45;31.77;;;17.65;;
55364;SDS011;41245;45.384;20.390;2024-02-04T08:02:11;41.08;;;20.73;;
55364;SDS011;41245;45.384;20.390;2024-02-04T08:04:39;34.67;;;18.50;;
55364;SDS011;41245;45.384;20.390;2024-02-04T08:07:06;34.58;;;18.05;;
55364;SDS011;41245;45.384;20.390;2024-02-04T08:09:32;26.88;;;15.18;;
55364;SDS011;41245;45.384;20.390;2024-02-04T08:11:58;29.70;;;16.55;;
55364;SDS011;41245;45.384;20.390;2024-02-04T08:14:23;30.98;;;14.80;;
55364;SDS011;41245;45.384;20.390;2024-02-04T08:16:49;27.42;;;15.93;;
55364;SDS011;41245;45.384;20.390;2024-02-04T08:19:15;31.10;;;15.75;;
55364;SDS011;41245;45.384;20.390;2024-02-04T08:21:40;25.90;;;13.88;;
55364;SDS011;41245;45.384;20.390;2024-02-04T08:24:06;33.35;;;16.75;;
55364;SDS011;41245;45.384;20.390;2024-02-04T08:26:32;29.48;;;15.75;;
55364;SDS011;41245;45.384;20.390;2024-02-04T08:28:58;27.45;;;14.85;;
55364;SDS011;41245;45.384;20.390;2024-02-04T08:31:24;26.38;;;14.07;;
55364;SDS011;41245;45.384;20.390;2024-02-04T08:33:50;22.40;;;12.40;;
55364;SDS011;41245;45.384;20.390;2024-02-04T08:36:17;20.27;;;12.77;;
55364;SDS011;41245;45.384;20.390;2024-02-04T08:38:43;21.13;;;11.50;;
55364;SDS011;41245;45.384;20.390;2024-02-04T08:41:10;25.15;;;13.68;;
55364;SDS011;41245;45.384;20.390;2024-02-04T08:43:36;26.20;;;11.25;;
55364;SDS011;41245;45.384;20.390;2024-02-04T08:46:03;22.42;;;12.00;;
55364;SDS011;41245;45.384;20.390;2024-02-04T08:48:29;17.35;;;10.10;;
55364;SDS011;41245;45.384;20.390;2024-02-04T08:50:55;20.88;;;11.15;;
55364;SDS011;41245;45.384;20.390;2024-02-04T08:53:21;20.92;;;12.00;;
55364;SDS011;41245;45.384;20.390;2024-02-04T08:55:48;21.65;;;11.23;;
55364;SDS011;41245;45.384;20.390;2024-02-04T08:58:15;16.83;;;10.45;;
55364;SDS011;41245;45.384;20.390;2024-02-04T09:00:41;32.08;;;12.88;;
55364;SDS011;41245;45.384;20.390;2024-02-04T09:03:07;51.35;;;19.10;;
55364;SDS011;41245;45.384;20.390;2024-02-04T09:05:33;25.08;;;11.65;;
55364;SDS011;41245;45.384;20.390;2024-02-04T09:07:59;29.70;;;15.10;;
55364;SDS011;41245;45.384;20.390;2024-02-04T09:10:26;16.90;;;8.55;;
55364;SDS011;41245;45.384;20.390;2024-02-04T09:12:52;16.90;;;8.85;;
55364;SDS011;41245;45.384;20.390;2024-02-04T09:15:18;11.65;;;6.68;;
55364;SDS011;41245;45.384;20.390;2024-02-04T09:17:44;14.35;;;7.35;;
55364;SDS011;41245;45.384;20.390;2024-02-04T09:20:10;10.68;;;5.85;;
55364;SDS011;41245;45.384;20.390;2024-02-04T09:22:36;11.60;;;6.55;;
55364;SDS011;41245;45.384;20.390;2024-02-04T09:25:04;15.75;;;7.03;;
55364;SDS011;41245;45.384;20.390;2024-02-04T09:27:30;19.48;;;7.85;;
55364;SDS011;41245;45.384;20.390;2024-02-04T09:29:56;14.52;;;7.28;;
55364;SDS011;41245;45.384;20.390;2024-02-04T09:32:23;9.15;;;5.25;;
55364;SDS011;41245;45.384;20.390;2024-02-04T09:34:49;9.93;;;4.85;;
55364;SDS011;41245;45.384;20.390;2024-02-04T09:37:15;7.22;;;4.68;;
55364;SDS011;41245;45.384;20.390;2024-02-04T09:39:42;8.07;;;4.47;;
55364;SDS011;41245;45.384;20.390;2024-02-04T09:42:08;12.98;;;5.03;;
55364;SDS011;41245;45.384;20.390;2024-02-04T09:44:34;7.90;;;4.63;;
55364;SDS011;41245;45.384;20.390;2024-02-04T09:47:01;7.95;;;4.45;;
55364;SDS011;41245;45.384;20.390;2024-02-04T09:49:27;4.47;;;2.40;;
55364;SDS011;41245;45.384;20.390;2024-02-04T09:51:54;3.88;;;2.35;;
55364;SDS011;41245;45.384;20.390;2024-02-04T09:54:21;6.50;;;3.25;;
55364;SDS011;41245;45.384;20.390;2024-02-04T09:56:48;5.80;;;3.22;;
55364;SDS011;41245;45.384;20.390;2024-02-04T09:59:16;10.50;;;4.43;;
55364;SDS011;41245;45.384;20.390;2024-02-04T10:01:42;10.73;;;5.03;;
55364;SDS011;41245;45.384;20.390;2024-02-04T10:04:09;7.72;;;4.00;;
55364;SDS011;41245;45.384;20.390;2024-02-04T10:06:35;10.43;;;4.95;;
55364;SDS011;41245;45.384;20.390;2024-02-04T10:09:01;9.98;;;4.13;;
55364;SDS011;41245;45.384;20.390;2024-02-04T10:11:27;12.77;;;4.47;;
55364;SDS011;41245;45.384;20.390;2024-02-04T10:13:54;7.53;;;4.07;;
55364;SDS011;41245;45.384;20.390;2024-02-04T10:16:20;6.22;;;3.63;;
55364;SDS011;41245;45.384;20.390;2024-02-04T10:18:47;6.70;;;3.53;;
55364;SDS011;41245;45.384;20.390;2024-02-04T10:21:21;8.32;;;3.35;;
55364;SDS011;41245;45.384;20.390;2024-02-04T10:23:48;4.95;;;2.60;;
55364;SDS011;41245;45.384;20.390;2024-02-04T10:26:15;4.03;;;2.20;;
55364;SDS011;41245;45.384;20.390;2024-02-04T10:28:41;5.88;;;2.47;;
55364;SDS011;41245;45.384;20.390;2024-02-04T10:31:11;4.60;;;2.47;;
55364;SDS011;41245;45.384;20.390;2024-02-04T10:33:37;10.90;;;2.13;;
55364;SDS011;41245;45.384;20.390;2024-02-04T10:36:03;7.40;;;2.88;;
55364;SDS011;41245;45.384;20.390;2024-02-04T10:38:30;4.50;;;2.17;;
55364;SDS011;41245;45.384;20.390;2024-02-04T10:40:56;3.17;;;1.90;;
55364;SDS011;41245;45.384;20.390;2024-02-04T10:43:24;5.22;;;2.60;;
55364;SDS011;41245;45.384;20.390;2024-02-04T10:45:55;5.63;;;2.00;;
55364;SDS011;41245;45.384;20.390;2024-02-04T10:48:22;3.72;;;2.15;;
55364;SDS011;41245;45.384;20.390;2024-02-04T10:50:50;3.63;;;2.28;;
55364;SDS011;41245;45.384;20.390;2024-02-04T10:53:17;4.47;;;2.22;;
55364;SDS011;41245;45.384;20.390;2024-02-04T10:55:46;4.22;;;2.60;;
55364;SDS011;41245;45.384;20.390;2024-02-04T10:58:12;5.03;;;2.45;;
55364;SDS011;41245;45.384;20.390;2024-02-04T11:00:44;3.40;;;1.83;;
55364;SDS011;41245;45.384;20.390;2024-02-04T11:03:11;4.30;;;2.30;;
55364;SDS011;41245;45.384;20.390;2024-02-04T11:05:37;5.05;;;2.78;;
55364;SDS011;41245;45.384;20.390;2024-02-04T11:08:04;3.40;;;1.98;;
55364;SDS011;41245;45.384;20.390;2024-02-04T11:10:31;3.40;;;2.15;;
55364;SDS011;41245;45.384;20.390;2024-02-04T11:12:59;3.15;;;2.17;;
55364;SDS011;41245;45.384;20.390;2024-02-04T11:15:29;4.07;;;2.50;;
55364;SDS011;41245;45.384;20.390;2024-02-04T11:23:12;4.43;;;2.15;;
55364;SDS011;41245;45.384;20.390;2024-02-04T11:28:08;7.43;;;2.35;;
55364;SDS011;41245;45.384;20.390;2024-02-04T11:30:34;4.22;;;1.90;;
55364;SDS011;41245;45.384;20.390;2024-02-04T11:33:04;4.63;;;2.58;;
55364;SDS011;41245;45.384;20.390;2024-02-04T11:35:30;5.35;;;2.60;;
55364;SDS011;41245;45.384;20.390;2024-02-04T11:37:57;3.20;;;2.03;;
55364;SDS011;41245;45.384;20.390;2024-02-04T11:40:23;3.80;;;2.53;;
55364;SDS011;41245;45.384;20.390;2024-02-04T11:42:49;3.97;;;2.47;;
55364;SDS011;41245;45.384;20.390;2024-02-04T11:45:16;3.40;;;1.98;;
55364;SDS011;41245;45.384;20.390;2024-02-04T11:47:42;4.13;;;2.38;;
55364;SDS011;41245;45.384;20.390;2024-02-04T11:50:09;2.30;;;1.40;;
55364;SDS011;41245;45.384;20.390;2024-02-04T11:52:35;6.00;;;1.80;;
55364;SDS011;41245;45.384;20.390;2024-02-04T11:55:01;2.78;;;1.23;;
55364;SDS011;41245;45.384;20.390;2024-02-04T11:57:32;3.38;;;1.42;;
55364;SDS011;41245;45.384;20.390;2024-02-04T11:59:58;3.17;;;1.25;;
55364;SDS011;41245;45.384;20.390;2024-02-04T12:02:25;4.25;;;1.85;;
55364;SDS011;41245;45.384;20.390;2024-02-04T12:04:51;4.22;;;2.42;;
55364;SDS011;41245;45.384;20.390;2024-02-04T12:07:18;5.90;;;2.08;;
55364;SDS011;41245;45.384;20.390;2024-02-04T12:09:44;4.13;;;2.45;;
55364;SDS011;41245;45.384;20.390;2024-02-04T12:12:10;3.70;;;1.33;;
55364;SDS011;41245;45.384;20.390;2024-02-04T12:14:36;2.25;;;1.38;;
55364;SDS011;41245;45.384;20.390;2024-02-04T12:17:07;2.42;;;1.40;;
55364;SDS011;41245;45.384;20.390;2024-02-04T12:19:34;2.38;;;1.63;;
55364;SDS011;41245;45.384;20.390;2024-02-04T12:22:00;1.58;;;1.08;;
55364;SDS011;41245;45.384;20.390;2024-02-04T12:24:26;3.20;;;1.80;;
55364;SDS011;41245;45.384;20.390;2024-02-04T12:26:53;4.07;;;1.70;;
55364;SDS011;41245;45.384;20.390;2024-02-04T12:29:19;2.20;;;1.40;;
55364;SDS011;41245;45.384;20.390;2024-02-04T12:31:45;3.10;;;1.60;;
55364;SDS011;41245;45.384;20.390;2024-02-04T12:34:12;2.85;;;1.88;;
55364;SDS011;41245;45.384;20.390;2024-02-04T12:36:38;2.90;;;1.70;;
55364;SDS011;41245;45.384;20.390;2024-02-04T12:39:05;2.03;;;0.98;;
55364;SDS011;41245;45.384;20.390;2024-02-04T12:41:35;4.95;;;1.38;;
55364;SDS011;41245;45.384;20.390;2024-02-04T12:44:01;2.72;;;1.42;;
55364;SDS011;41245;45.384;20.390;2024-02-04T12:46:30;1.30;;;0.80;;
55364;SDS011;41245;45.384;20.390;2024-02-04T12:48:56;2.00;;;1.27;;
55364;SDS011;41245;45.384;20.390;2024-02-04T12:51:29;2.78;;;1.70;;
55364;SDS011;41245;45.384;20.390;2024-02-04T12:56:39;3.15;;;1.95;;
55364;SDS011;41245;45.384;20.390;2024-02-04T12:59:05;4.07;;;1.85;;
55364;SDS011;41245;45.384;20.390;2024-02-04T13:01:31;1.30;;;0.80;;
55364;SDS011;41245;45.384;20.390;2024-02-04T13:03:57;5.15;;;1.40;;
55364;SDS011;41245;45.384;20.390;2024-02-04T13:06:23;1.27;;;1.10;;
55364;SDS011;41245;45.384;20.390;2024-02-04T13:08:53;2.47;;;1.35;;
55364;SDS011;41245;45.384;20.390;2024-02-04T13:11:22;2.28;;;1.15;;
55364;SDS011;41245;45.384;20.390;2024-02-04T13:13:48;3.47;;;1.67;;
55364;SDS011;41245;45.384;20.390;2024-02-04T13:16:14;6.57;;;1.50;;
55364;SDS011;41245;45.384;20.390;2024-02-04T13:18:41;2.20;;;1.50;;
55364;SDS011;41245;45.384;20.390;2024-02-04T13:21:07;1.88;;;1.33;;
55364;SDS011;41245;45.384;20.390;2024-02-04T13:23:33;1.00;;;0.80;;
55364;SDS011;41245;45.384;20.390;2024-02-04T13:26:00;2.67;;;1.60;;
55364;SDS011;41245;45.384;20.390;2024-02-04T13:28:26;1.90;;;1.10;;
55364;SDS011;41245;45.384;20.390;2024-02-04T13:30:52;2.33;;;1.42;;
55364;SDS011;41245;45.384;20.390;2024-02-04T13:33:18;1.42;;;0.95;;
55364;SDS011;41245;45.384;20.390;2024-02-04T13:35:44;6.18;;;1.52;;
55364;SDS011;41245;45.384;20.390;2024-02-04T13:38:11;2.03;;;1.10;;
55364;SDS011;41245;45.384;20.390;2024-02-04T13:40:37;2.97;;;1.10;;
55364;SDS011;41245;45.384;20.390;2024-02-04T13:43:03;4.28;;;1.33;;
55364;SDS011;41245;45.384;20.390;2024-02-04T13:45:29;3.47;;;1.05;;
55364;SDS011;41245;45.384;20.390;2024-02-04T13:47:55;1.75;;;1.38;;
55364;SDS011;41245;45.384;20.390;2024-02-04T13:50:21;2.22;;;1.27;;
55364;SDS011;41245;45.384;20.390;2024-02-04T13:52:47;5.28;;;1.00;;
55364;SDS011;41245;45.384;20.390;2024-02-04T13:55:13;1.20;;;1.08;;
55364;SDS011;41245;45.384;20.390;2024-02-04T13:57:40;1.98;;;1.13;;
55364;SDS011;41245;45.384;20.390;2024-02-04T14:00:06;6.50;;;1.40;;
55364;SDS011;41245;45.384;20.390;2024-02-04T14:02:33;4.40;;;1.00;;
55364;SDS011;41245;45.384;20.390;2024-02-04T14:04:59;1.80;;;1.27;;
55364;SDS011;41245;45.384;20.390;2024-02-04T14:07:25;3.83;;;2.20;;
55364;SDS011;41245;45.384;20.390;2024-02-04T14:09:52;2.83;;;1.55;;
55364;SDS011;41245;45.384;20.390;2024-02-04T14:12:18;1.98;;;1.20;;
55364;SDS011;41245;45.384;20.390;2024-02-04T14:14:44;3.30;;;1.73;;
55364;SDS011;41245;45.384;20.390;2024-02-04T14:17:10;2.13;;;1.42;;
55364;SDS011;41245;45.384;20.390;2024-02-04T14:19:36;1.98;;;1.13;;
55364;SDS011;41245;45.384;20.390;2024-02-04T14:22:03;3.63;;;1.85;;
55364;SDS011;41245;45.384;20.390;2024-02-04T14:24:29;2.65;;;1.40;;
55364;SDS011;41245;45.384;20.390;2024-02-04T14:26:56;3.33;;;1.40;;
55364;SDS011;41245;45.384;20.390;2024-02-04T14:29:23;2.55;;;1.80;;
55364;SDS011;41245;45.384;20.390;2024-02-04T14:31:50;3.42;;;1.98;;